No data was retrieved for https://query.yahooapis.com/v1/public/yql?q=select+%2A+from+weather.forecast+where+woeid%3D731260&format=xml&u=c



METAR rapporten vliegvelden

   
EHAM - Amsterdam
Gewijzigd: 20-04-2019 23:25
Helder  
Helder  
   Wind: ONO 22.2 km/h
Wind: ONO 22.2 km/h
Temperatuur: 16°C
Dauwpunt: 4°C
Vochtigheid: 45%
Barometer: 1027 hPa
Zicht: meer dan 10 km
Bewolking: Helder
EHAM 202125Z 07012KT CAVOK 16/04 Q1027 NOSIG
EHBK - Maastricht
Gewijzigd: 20-04-2019 23:25
Helder  
Helder  
   Wind: ONO 14.8 km/h
Wind: ONO 14.8 km/h
Temperatuur: 16°C
Dauwpunt: 4°C
Vochtigheid: 45%
Barometer: 1025 hPa
Bewolking: Helder
Zicht: meer dan 10 km
Bewolking: Helder
EHBK 202125Z AUTO 06008KT 9999 NCD 16/04 Q1025
ELLX - Luxemburg
Gewijzigd: 20-04-2019 23:20
Helder  
Helder  
   Wind: NO 16.7 km/h
Wind: NO 16.7 km/h
Temperatuur: 17°C
Dauwpunt: 0°C
Vochtigheid: 32%
Barometer: 1024 hPa
Zicht: meer dan 10 km
Bewolking: Helder
ELLX 202120Z 05009KT CAVOK 17/M00 Q1024 NOSIG
EDDL - Dusseldorf
Gewijzigd: 20-04-2019 23:20
Helder  
Helder  
   Wind: NO 18.5 km/h
Wind: NO 18.5 km/h
Temperatuur: 17°C
Dauwpunt: 2°C
Vochtigheid: 37%
Barometer: 1026 hPa
Zicht: meer dan 10 km
Bewolking: Helder
EDDL 202120Z 04010KT CAVOK 17/02 Q1026 BECMG 03004KT
  

Script ontwikkeld door  Saratoga-weather.org Aangepast voor de template door  Weerstation Leuven